createdAt,value
2019-02-05T00:02:13.751Z,7.53
2019-02-05T00:04:43.687Z,7.67
2019-02-05T00:07:13.312Z,7.33
2019-02-05T00:09:42.852Z,7.90
2019-02-05T00:12:12.427Z,7.43
2019-02-05T00:14:41.980Z,7.93
2019-02-05T00:17:11.597Z,8.20
2019-02-05T00:19:41.839Z,8.40
2019-02-05T00:22:11.523Z,9.93
2019-02-05T00:24:41.550Z,10.00
2019-02-05T00:27:11.567Z,10.30
2019-02-05T00:29:41.611Z,10.33
2019-02-05T00:32:11.204Z,9.67
2019-02-05T00:34:40.822Z,9.00
2019-02-05T00:37:10.389Z,8.10
2019-02-05T00:39:40.165Z,8.03
2019-02-05T00:42:09.718Z,7.37
2019-02-05T00:44:39.307Z,7.83
2019-02-05T00:47:08.880Z,7.20
2019-02-05T00:49:38.426Z,8.30
2019-02-05T00:52:07.978Z,7.53
2019-02-05T00:54:37.807Z,7.83
2019-02-05T00:57:07.488Z,6.77
2019-02-05T00:59:37.585Z,7.27
2019-02-05T01:02:07.349Z,6.90
2019-02-05T01:04:36.934Z,7.20
2019-02-05T01:07:06.675Z,7.13
2019-02-05T01:09:36.247Z,6.73
2019-02-05T01:12:05.799Z,7.40
2019-02-05T01:14:35.388Z,7.07
2019-02-05T01:17:05.081Z,7.00
2019-02-05T01:19:34.656Z,6.40
2019-02-05T01:22:04.616Z,6.47
2019-02-05T01:24:34.219Z,7.30
2019-02-05T01:27:03.768Z,7.63
2019-02-05T01:29:33.343Z,8.17
2019-02-05T01:32:02.901Z,7.57
2019-02-05T01:34:33.124Z,7.53
2019-02-05T01:37:03.024Z,7.33
2019-02-05T01:39:33.068Z,7.90
2019-02-05T01:42:02.764Z,7.60
2019-02-05T01:44:32.472Z,6.80
2019-02-05T01:47:02.064Z,7.97
2019-02-05T01:49:31.612Z,7.00
2019-02-05T01:52:01.221Z,7.03
2019-02-05T01:54:31.215Z,8.63
2019-02-05T01:57:00.755Z,10.20
2019-02-05T01:59:30.352Z,8.87
2019-02-05T02:02:00.020Z,9.33
2019-02-05T02:04:30.327Z,9.43
2019-02-05T02:07:00.173Z,10.07
2019-02-05T02:09:29.757Z,9.57
2019-02-05T02:11:59.335Z,9.47
2019-02-05T02:14:28.883Z,9.80
2019-02-05T02:17:17.486Z,10.33
2019-02-05T02:19:47.052Z,10.07
2019-02-05T02:22:16.627Z,9.47
2019-02-05T02:24:46.137Z,10.03
2019-02-05T02:27:15.703Z,9.93
2019-02-05T02:29:45.674Z,10.30
2019-02-05T02:32:15.290Z,9.83
2019-02-05T02:34:44.929Z,10.70
2019-02-05T02:37:14.503Z,10.23
2019-02-05T02:39:44.445Z,10.27
2019-02-05T02:42:14.443Z,10.33
2019-02-05T02:44:44.341Z,9.27
2019-02-05T02:47:13.905Z,8.60
2019-02-05T02:49:43.509Z,7.73
2019-02-05T02:52:13.427Z,7.80
2019-02-05T02:54:43.082Z,7.60
2019-02-05T02:57:12.614Z,7.53
2019-02-05T02:59:42.324Z,8.00
2019-02-05T03:02:11.890Z,7.53
2019-02-05T03:04:41.462Z,8.40
2019-02-05T03:07:11.049Z,7.87
2019-02-05T03:09:40.607Z,7.83
2019-02-05T03:12:10.229Z,8.73
2019-02-05T03:14:40.004Z,11.07
2019-02-05T03:17:09.587Z,11.03
2019-02-05T03:19:39.183Z,11.77
2019-02-05T03:22:08.805Z,11.97
2019-02-05T03:24:38.887Z,11.23
2019-02-05T03:27:17.123Z,11.33
2019-02-05T03:29:39.684Z,10.77
2019-02-05T03:32:09.580Z,11.73
2019-02-05T03:34:58.151Z,11.67
2019-02-05T03:37:27.827Z,11.33
2019-02-05T03:39:57.416Z,11.73
2019-02-05T03:42:27.122Z,12.10
2019-02-05T03:44:57.068Z,11.27
2019-02-05T03:47:26.687Z,11.37
2019-02-05T03:49:56.351Z,11.57
2019-02-05T03:52:46.676Z,12.10
2019-02-05T03:55:50.742Z,11.33
2019-02-05T03:59:10.372Z,10.80
2019-02-05T04:02:11.548Z,11.40
2019-02-05T04:05:28.439Z,11.10
2019-02-05T04:08:45.068Z,11.53
2019-02-05T04:12:01.576Z,11.10
2019-02-05T04:15:27.899Z,10.33
2019-02-05T04:18:26.704Z,10.80
2019-02-05T04:21:49.195Z,11.23
2019-02-05T04:24:58.437Z,10.50
2019-02-05T04:27:47.213Z,11.30
2019-02-05T04:30:57.472Z,11.23
2019-02-05T04:34:11.409Z,10.97
2019-02-05T04:37:34.791Z,10.57
2019-02-05T04:40:38.522Z,9.33
2019-02-05T04:43:45.540Z,9.67
2019-02-05T04:46:58.997Z,9.77
2019-02-05T04:50:00.294Z,9.53
2019-02-05T04:53:19.599Z,10.30
2019-02-05T04:56:05.035Z,9.90
2019-02-05T04:59:03.814Z,9.80
2019-02-05T05:02:22.947Z,10.43
2019-02-05T05:05:36.757Z,10.25
2019-02-05T05:08:27.636Z,9.63
2019-02-05T05:10:57.286Z,10.43
2019-02-05T05:13:26.954Z,10.78
2019-02-05T05:15:56.623Z,10.63
2019-02-05T05:18:26.198Z,11.08
2019-02-05T05:20:56.102Z,11.00
2019-02-05T05:23:25.739Z,10.93
2019-02-05T05:25:55.308Z,12.07
2019-02-05T05:28:25.468Z,12.47
2019-02-05T05:31:14.439Z,11.93
2019-02-05T05:34:03.507Z,11.57
2019-02-05T05:36:51.706Z,11.67
2019-02-05T05:45:37.754Z,11.23
2019-02-05T05:48:26.316Z,12.95
2019-02-05T05:51:14.920Z,10.93
2019-02-05T05:54:03.492Z,11.00
2019-02-05T05:56:52.105Z,11.17
2019-02-05T05:59:40.685Z,11.60
2019-02-05T06:05:10.534Z,10.63
2019-02-05T06:07:51.993Z,11.67
2019-02-05T06:10:33.571Z,10.87
2019-02-05T06:18:54.796Z,11.30
2019-02-05T06:21:43.312Z,11.50
2019-02-05T06:24:31.945Z,11.23
2019-02-05T06:27:20.503Z,11.10
2019-02-05T06:30:11.935Z,11.20
2019-02-05T06:33:00.544Z,11.47
2019-02-05T06:35:49.112Z,13.40
2019-02-05T06:38:37.718Z,12.80
2019-02-05T06:41:26.256Z,11.40
2019-02-05T06:43:55.779Z,12.80
2019-02-05T06:46:44.349Z,11.23
2019-02-05T06:49:32.193Z,10.83
2019-02-05T06:52:20.856Z,11.57
2019-02-05T06:55:09.709Z,10.63
2019-02-05T06:57:58.533Z,10.80
2019-02-05T07:00:40.433Z,11.60
2019-02-05T07:03:22.227Z,11.10
2019-02-05T07:06:03.149Z,10.90
2019-02-05T07:20:12.373Z,11.57
2019-02-05T07:22:55.752Z,11.10
2019-02-05T07:25:37.805Z,12.10
2019-02-05T07:28:19.386Z,12.00
2019-02-05T07:33:54.113Z,11.73
2019-02-05T07:39:20.916Z,12.93
2019-02-05T07:42:02.524Z,12.03
2019-02-05T07:44:43.237Z,13.10
2019-02-05T07:47:24.095Z,12.30
2019-02-05T07:52:53.981Z,12.03
2019-02-05T07:55:35.575Z,12.57
2019-02-05T08:01:06.097Z,12.60
2019-02-05T08:03:47.092Z,13.10
2019-02-05T08:06:28.797Z,12.63
2019-02-05T08:14:45.308Z,11.77
2019-02-05T08:17:26.094Z,12.57
2019-02-05T08:25:42.814Z,11.67
2019-02-05T08:28:24.726Z,10.63
2019-02-05T08:31:09.107Z,11.13
2019-02-05T08:36:39.743Z,10.63
2019-02-05T08:39:21.316Z,12.40
2019-02-05T08:42:02.290Z,12.03
2019-02-05T08:44:43.342Z,11.87
2019-02-05T08:47:25.029Z,11.47
2019-02-05T08:52:57.807Z,10.53
2019-02-05T09:01:23.450Z,11.77
2019-02-05T09:03:53.979Z,12.50
2019-02-05T09:09:31.848Z,12.30
2019-02-05T09:12:22.075Z,13.33
2019-02-05T09:18:13.337Z,12.93
2019-02-05T09:21:01.971Z,12.90
2019-02-05T09:23:50.541Z,12.20
2019-02-05T09:26:39.756Z,12.30
2019-02-05T09:35:31.791Z,14.33
2019-02-05T09:38:20.419Z,13.43
2019-02-05T09:41:09.173Z,13.33
2019-02-05T09:46:34.949Z,13.27
2019-02-05T09:49:25.225Z,13.10
2019-02-05T09:52:13.864Z,13.60
2019-02-05T09:55:02.646Z,13.93
2019-02-05T09:57:51.611Z,11.97
2019-02-05T10:00:41.578Z,13.43
2019-02-05T10:03:30.145Z,12.90
2019-02-05T10:06:20.600Z,12.90
2019-02-05T10:12:05.253Z,13.73
2019-02-05T10:14:55.956Z,12.93
2019-02-05T10:17:25.787Z,13.80
2019-02-05T10:20:15.168Z,14.17
2019-02-05T10:23:24.989Z,14.17
2019-02-05T10:26:13.749Z,14.20
2019-02-05T10:32:03.813Z,14.00
2019-02-05T10:34:52.499Z,14.67
2019-02-05T10:37:41.100Z,14.57
2019-02-05T10:40:48.831Z,14.67
2019-02-05T10:43:37.383Z,14.10
2019-02-05T10:46:25.962Z,13.07
2019-02-05T10:49:14.563Z,13.13
2019-02-05T10:52:03.300Z,11.50
2019-02-05T10:54:51.928Z,11.73
2019-02-05T10:57:42.162Z,11.27
2019-02-05T11:00:25.055Z,11.40
2019-02-05T11:03:07.252Z,11.53
2019-02-05T11:05:37.347Z,11.07
2019-02-05T11:08:10.796Z,11.97
2019-02-05T11:10:40.635Z,11.77
2019-02-05T11:13:10.572Z,11.27
2019-02-05T11:16:16.440Z,12.43
2019-02-05T11:22:04.081Z,12.17
2019-02-05T11:24:39.344Z,12.00
2019-02-05T11:30:48.879Z,12.10
2019-02-05T11:33:37.859Z,11.70
2019-02-05T11:36:29.279Z,11.57
2019-02-05T11:39:02.956Z,12.20
2019-02-05T11:44:53.487Z,11.70
2019-02-05T11:47:23.072Z,11.20
2019-02-05T11:49:53.510Z,11.97
2019-02-05T11:52:42.937Z,12.30
2019-02-05T11:55:31.767Z,12.23
2019-02-05T11:58:20.679Z,11.80
2019-02-05T12:03:54.369Z,12.17
2019-02-05T12:06:35.795Z,11.43
2019-02-05T12:15:09.894Z,10.80
2019-02-05T12:17:50.597Z,10.37
2019-02-05T12:20:31.375Z,10.70
2019-02-05T12:23:12.984Z,11.37
2019-02-05T12:25:56.320Z,11.83
2019-02-05T12:28:26.170Z,11.20
2019-02-05T12:30:56.071Z,10.67
2019-02-05T12:36:40.859Z,11.10
2019-02-05T12:39:53.076Z,10.63
2019-02-05T12:45:30.227Z,11.13
2019-02-05T12:51:23.102Z,10.47
2019-02-05T12:57:02.481Z,9.77
2019-02-05T13:00:29.040Z,10.37
2019-02-05T13:02:54.841Z,10.30
2019-02-05T13:11:19.683Z,10.13
2019-02-05T13:16:47.707Z,10.00
2019-02-05T13:19:39.911Z,10.53
2019-02-05T13:22:12.203Z,10.00
2019-02-05T13:30:52.795Z,10.50
2019-02-05T13:33:41.684Z,10.53
2019-02-05T13:36:30.253Z,11.73
2019-02-05T13:39:20.462Z,10.60
2019-02-05T13:42:09.356Z,10.97
2019-02-05T13:44:58.230Z,10.97
2019-02-05T13:47:46.800Z,11.17
2019-02-05T13:50:18.903Z,10.90
2019-02-05T13:53:08.653Z,11.27
2019-02-05T13:58:49.835Z,10.00
2019-02-05T14:01:31.175Z,10.77
2019-02-05T14:04:10.873Z,11.37
2019-02-05T14:06:41.640Z,11.20
2019-02-05T14:09:30.581Z,11.33
2019-02-05T14:12:21.868Z,11.40
2019-02-05T14:18:12.326Z,11.57
2019-02-05T14:21:00.977Z,12.07
2019-02-05T14:23:49.560Z,11.13
2019-02-05T14:26:38.161Z,13.15
2019-02-05T14:29:26.762Z,12.07
2019-02-05T14:32:15.650Z,11.00
2019-02-05T14:35:05.171Z,10.57
2019-02-05T14:37:54.325Z,11.27
2019-02-05T14:40:29.202Z,11.40
2019-02-05T14:43:17.704Z,11.50
2019-02-05T14:46:06.767Z,11.90
2019-02-05T14:48:55.361Z,11.00
2019-02-05T14:51:44.454Z,11.10
2019-02-05T14:54:33.150Z,10.83
2019-02-05T14:57:21.858Z,11.60
2019-02-05T15:00:12.280Z,12.07
2019-02-05T15:14:36.544Z,11.60
2019-02-05T15:17:06.516Z,11.97
2019-02-05T15:19:36.517Z,11.03
2019-02-05T15:22:25.139Z,11.63
2019-02-05T15:25:14.289Z,10.83
2019-02-05T15:27:44.183Z,12.60
2019-02-05T15:30:33.952Z,11.63
2019-02-05T15:36:38.888Z,11.73
2019-02-05T15:45:27.028Z,11.33
2019-02-05T15:48:11.819Z,11.73
2019-02-05T15:50:49.204Z,11.30
2019-02-05T15:53:38.264Z,11.37
2019-02-05T15:56:08.536Z,12.17
2019-02-05T15:58:57.111Z,11.93
2019-02-05T16:02:06.727Z,11.83
2019-02-05T16:08:12.544Z,11.93
2019-02-05T16:11:21.837Z,11.70
2019-02-05T16:26:22.073Z,11.77
2019-02-05T16:29:10.931Z,11.60
2019-02-05T16:31:59.573Z,13.37
2019-02-05T16:34:48.189Z,13.80
2019-02-05T16:37:37.091Z,14.90
2019-02-05T16:40:26.221Z,13.80
2019-02-05T16:43:16.453Z,12.93
2019-02-05T16:46:05.087Z,12.43
2019-02-05T16:48:56.800Z,12.83
2019-02-05T16:51:26.586Z,12.40
2019-02-05T16:54:15.188Z,12.40
2019-02-05T16:59:46.963Z,13.17
2019-02-05T17:05:17.687Z,12.60
2019-02-05T17:07:48.389Z,12.70
2019-02-05T17:10:37.360Z,12.87
2019-02-05T17:13:25.890Z,13.07
2019-02-05T17:19:22.008Z,15.95
2019-02-05T17:22:12.819Z,13.40
2019-02-05T17:24:45.660Z,13.57
2019-02-05T17:27:16.241Z,13.43
2019-02-05T17:30:07.296Z,13.43
2019-02-05T17:32:55.887Z,13.07
2019-02-05T17:39:09.098Z,12.73
2019-02-05T17:41:38.666Z,12.73
2019-02-05T17:44:08.227Z,12.87
2019-02-05T17:46:38.262Z,13.00
2019-02-05T17:49:07.858Z,13.07
2019-02-05T17:51:37.508Z,13.40
2019-02-05T17:54:07.072Z,12.63
2019-02-05T17:56:37.179Z,13.50
2019-02-05T17:59:07.181Z,12.23
2019-02-05T18:01:36.840Z,13.17
2019-02-05T18:04:06.460Z,13.60
2019-02-05T18:06:36.273Z,13.20
2019-02-05T18:09:08.391Z,13.93
2019-02-05T18:11:38.059Z,13.37
2019-02-05T18:14:07.621Z,13.43
2019-02-05T18:16:37.532Z,15.07
2019-02-05T18:19:07.164Z,14.67
2019-02-05T18:21:36.775Z,14.13
2019-02-05T18:24:06.548Z,15.23
2019-02-05T18:26:36.188Z,14.10
2019-02-05T18:29:06.666Z,14.10
2019-02-05T18:31:36.248Z,12.70
2019-02-05T18:34:06.160Z,13.00
2019-02-05T18:36:35.838Z,11.23
2019-02-05T18:39:09.023Z,11.00
2019-02-05T18:41:39.252Z,11.00
2019-02-05T18:44:08.964Z,11.67
2019-02-05T18:46:38.516Z,11.13
2019-02-05T18:49:08.079Z,10.80
2019-02-05T18:51:38.175Z,10.60
2019-02-05T18:54:07.815Z,11.20
2019-02-05T18:56:37.479Z,10.40
2019-02-05T18:59:07.029Z,10.20
2019-02-05T19:01:36.659Z,10.73
2019-02-05T19:04:06.531Z,11.33
2019-02-05T19:06:36.289Z,10.10
2019-02-05T19:09:12.448Z,10.60
2019-02-05T19:11:42.004Z,10.33
2019-02-05T19:14:11.622Z,10.00
2019-02-05T19:16:41.204Z,10.43
2019-02-05T19:19:14.895Z,10.80
2019-02-05T19:21:42.036Z,9.97
2019-02-05T19:24:18.986Z,11.63
2019-02-05T19:26:51.505Z,11.23
2019-02-05T19:29:21.078Z,10.70
2019-02-05T19:31:51.074Z,11.07
2019-02-05T19:34:20.706Z,11.17
2019-02-05T19:36:50.387Z,10.80
2019-02-05T19:39:20.728Z,10.20
2019-02-05T19:41:50.515Z,10.07
2019-02-05T19:44:20.255Z,10.93
2019-02-05T19:47:02.628Z,10.83
2019-02-05T19:49:33.980Z,10.80
2019-02-05T19:52:03.601Z,10.30
2019-02-05T19:54:33.472Z,10.37
2019-02-05T19:57:03.157Z,11.50
2019-02-05T19:59:32.848Z,10.67
2019-02-05T20:02:03.276Z,11.30
2019-02-05T20:04:32.846Z,9.77
2019-02-05T20:07:02.646Z,10.97
2019-02-05T20:09:32.321Z,11.13
2019-02-05T20:12:01.913Z,11.23
2019-02-05T20:14:32.858Z,9.97
2019-02-05T20:17:03.174Z,10.17
2019-02-05T20:19:32.769Z,9.97
2019-02-05T20:22:02.476Z,10.57
2019-02-05T20:24:32.190Z,10.07
2019-02-05T20:27:01.765Z,9.47
2019-02-05T20:29:31.479Z,9.50
2019-02-05T20:32:01.289Z,10.00
2019-02-05T20:34:30.879Z,9.83
2019-02-05T20:37:00.480Z,10.17
2019-02-05T20:39:30.495Z,10.87
2019-02-05T20:42:00.150Z,10.17
2019-02-05T20:44:29.737Z,9.30
2019-02-05T20:46:59.366Z,10.13
2019-02-05T20:49:29.380Z,10.27
2019-02-05T20:51:59.036Z,10.00
2019-02-05T20:54:28.844Z,9.97
2019-02-05T20:56:58.361Z,9.43
2019-02-05T20:59:30.243Z,8.90
2019-02-05T21:01:59.322Z,10.27
2019-02-05T21:04:29.144Z,9.67
2019-02-05T21:06:59.862Z,10.63
2019-02-05T21:09:29.449Z,10.47
2019-02-05T21:11:59.320Z,10.60
2019-02-05T21:14:28.881Z,9.90
2019-02-05T21:16:58.471Z,10.00
2019-02-05T21:19:28.016Z,11.63
2019-02-05T21:21:57.606Z,10.40
2019-02-05T21:24:27.203Z,11.03
2019-02-05T21:26:56.755Z,10.60
2019-02-05T21:29:26.305Z,10.33
2019-02-05T21:31:55.889Z,10.77
2019-02-05T21:34:25.463Z,10.63
2019-02-05T21:36:55.004Z,11.50
2019-02-05T21:39:24.837Z,9.53
2019-02-05T21:41:54.384Z,11.50
2019-02-05T21:44:24.238Z,10.00
2019-02-05T21:46:53.775Z,9.00
2019-02-05T21:49:23.322Z,11.10
2019-02-05T21:51:53.188Z,11.07
2019-02-05T21:54:22.787Z,11.17
2019-02-05T21:56:52.506Z,10.77
2019-02-05T21:59:22.042Z,10.57
2019-02-05T22:01:51.629Z,10.03
2019-02-05T22:04:27.027Z,9.90
2019-02-05T22:06:52.453Z,10.77
2019-02-05T22:09:22.013Z,9.90
2019-02-05T22:11:51.635Z,10.40
2019-02-05T22:14:21.171Z,10.53
2019-02-05T22:16:50.728Z,11.33
2019-02-05T22:19:21.503Z,11.03
2019-02-05T22:21:51.472Z,10.07
2019-02-05T22:24:21.004Z,10.63
2019-02-05T22:26:50.583Z,10.47
2019-02-05T22:29:20.098Z,11.63
2019-02-05T22:31:49.947Z,10.50
2019-02-05T22:34:20.165Z,10.97
2019-02-05T22:36:49.731Z,11.40
2019-02-05T22:39:19.273Z,10.77
2019-02-05T22:41:48.847Z,10.47
2019-02-05T22:44:18.375Z,11.00
2019-02-05T22:46:48.219Z,11.07
2019-02-05T22:49:17.767Z,10.90
2019-02-05T22:51:47.679Z,11.60
2019-02-05T22:54:17.204Z,11.40
2019-02-05T22:56:47.464Z,11.70
2019-02-05T22:59:17.767Z,10.83
2019-02-05T23:01:52.432Z,11.40
2019-02-05T23:04:31.178Z,11.63
2019-02-05T23:07:16.106Z,11.60
2019-02-05T23:10:29.711Z,11.63
2019-02-05T23:13:13.731Z,12.43
2019-02-05T23:15:48.076Z,11.70
2019-02-05T23:18:18.554Z,13.13
2019-02-05T23:20:48.695Z,12.90
2019-02-05T23:23:18.368Z,13.43
2019-02-05T23:25:47.939Z,13.30
2019-02-05T23:28:17.692Z,12.53
2019-02-05T23:30:47.440Z,12.97
2019-02-05T23:33:17.022Z,13.57
2019-02-05T23:35:46.566Z,12.67
2019-02-05T23:38:16.150Z,12.57
2019-02-05T23:40:46.113Z,12.73
2019-02-05T23:43:21.767Z,11.93
2019-02-05T23:46:01.543Z,12.53
2019-02-05T23:48:25.499Z,11.93
2019-02-05T23:50:56.691Z,12.57
2019-02-05T23:53:26.821Z,12.23
2019-02-05T23:55:56.715Z,12.97
2019-02-05T23:58:26.913Z,12.57
